createdAt,value
2017-12-09T00:00:16.759Z,0
2017-12-09T00:01:25.556Z,0
2017-12-09T00:02:34.352Z,0
2017-12-09T00:03:43.147Z,0
2017-12-09T00:04:51.681Z,0
2017-12-09T00:06:00.485Z,0
2017-12-09T00:07:09.549Z,0
2017-12-09T00:08:18.612Z,0
2017-12-09T00:09:27.680Z,0
2017-12-09T00:10:36.742Z,0
2017-12-09T00:11:45.271Z,0
2017-12-09T00:12:53.800Z,0
2017-12-09T00:14:02.599Z,0
2017-12-09T00:15:11.403Z,0
2017-12-09T00:16:20.199Z,0
2017-12-09T00:17:28.734Z,0
2017-12-09T00:18:37.803Z,0
2017-12-09T00:19:46.331Z,0
2017-12-09T00:20:55.129Z,0
2017-12-09T00:22:03.934Z,0
2017-12-09T00:23:12.728Z,0
2017-12-09T00:24:21.791Z,0
2017-12-09T00:25:30.584Z,0
2017-12-09T00:26:39.112Z,0
2017-12-09T00:27:47.910Z,0
2017-12-09T00:28:56.436Z,0
2017-12-09T00:30:05.769Z,0
2017-12-09T00:31:14.301Z,0
2017-12-09T00:32:23.101Z,0
2017-12-09T00:33:32.167Z,0
2017-12-09T00:34:40.698Z,0
2017-12-09T00:35:52.555Z,0
2017-12-09T00:37:01.351Z,0
2017-12-09T00:38:10.148Z,0
2017-12-09T00:39:18.678Z,0
2017-12-09T00:40:27.474Z,0
2017-12-09T00:41:36.270Z,0
2017-12-09T00:42:45.065Z,0
2017-12-09T00:43:53.598Z,0
2017-12-09T00:45:02.131Z,0
2017-12-09T00:46:11.202Z,0
2017-12-09T00:47:19.743Z,0
2017-12-09T00:48:29.072Z,0
2017-12-09T00:49:37.603Z,0
2017-12-09T00:50:46.132Z,0
2017-12-09T00:51:54.662Z,0
2017-12-09T00:53:03.462Z,0
2017-12-09T00:54:12.258Z,0
2017-12-09T00:55:20.792Z,0
2017-12-09T00:56:29.852Z,0
2017-12-09T00:57:38.383Z,0
2017-12-09T00:58:47.181Z,0
2017-12-09T00:59:55.714Z,0
2017-12-09T01:01:04.509Z,0
2017-12-09T01:02:13.040Z,0
2017-12-09T01:03:22.104Z,0
2017-12-09T01:04:30.636Z,0
2017-12-09T01:05:39.438Z,0
2017-12-09T01:06:48.511Z,0
2017-12-09T01:07:57.043Z,0
2017-12-09T01:09:05.843Z,0
2017-12-09T01:10:14.905Z,0
2017-12-09T01:11:23.436Z,0
2017-12-09T01:12:32.234Z,0
2017-12-09T01:13:41.033Z,0
2017-12-09T01:14:50.110Z,0
2017-12-09T01:15:58.640Z,0
2017-12-09T01:17:07.433Z,0
2017-12-09T01:18:16.231Z,0
2017-12-09T01:19:25.301Z,0
2017-12-09T01:20:33.846Z,0
2017-12-09T01:21:42.376Z,0
2017-12-09T01:22:50.907Z,0
2017-12-09T01:23:59.701Z,0
2017-12-09T01:25:08.231Z,0
2017-12-09T01:26:17.581Z,0
2017-12-09T01:27:26.382Z,0
2017-12-09T01:28:35.450Z,0
2017-12-09T01:29:43.981Z,0
2017-12-09T01:30:52.775Z,0
2017-12-09T01:32:01.309Z,0
2017-12-09T01:33:09.843Z,0
2017-12-09T01:34:18.637Z,0
2017-12-09T01:35:27.442Z,0
2017-12-09T01:36:36.237Z,0
2017-12-09T01:37:44.767Z,0
2017-12-09T01:38:53.845Z,0
2017-12-09T01:40:02.909Z,0
2017-12-09T01:41:11.707Z,0
2017-12-09T01:42:20.238Z,0
2017-12-09T01:43:29.316Z,0
2017-12-09T01:44:38.120Z,0
2017-12-09T01:45:46.918Z,0
2017-12-09T01:46:55.450Z,0
2017-12-09T01:48:03.977Z,0
2017-12-09T01:49:12.775Z,0
2017-12-09T01:50:21.305Z,0
2017-12-09T01:51:30.104Z,0
2017-12-09T01:52:38.634Z,0
2017-12-09T01:53:47.163Z,0
2017-12-09T01:54:56.010Z,0
2017-12-09T01:56:04.807Z,0
2017-12-09T01:57:13.340Z,0
2017-12-09T01:58:22.133Z,0
2017-12-09T01:59:30.928Z,0
2017-12-09T02:00:39.726Z,0
2017-12-09T02:01:48.791Z,0
2017-12-09T02:02:57.588Z,0
2017-12-09T02:04:06.659Z,0
2017-12-09T02:05:16.007Z,0
2017-12-09T02:06:24.539Z,0
2017-12-09T02:07:33.603Z,0
2017-12-09T02:08:42.401Z,0
2017-12-09T02:09:51.194Z,0
2017-12-09T02:10:59.988Z,0
2017-12-09T02:12:08.517Z,0
2017-12-09T02:13:17.580Z,0
2017-12-09T02:14:26.138Z,0
2017-12-09T02:15:34.956Z,0
2017-12-09T02:16:43.486Z,0
2017-12-09T02:17:52.280Z,0
2017-12-09T02:19:01.078Z,0
2017-12-09T02:20:10.146Z,0
2017-12-09T02:21:18.679Z,0
2017-12-09T02:22:27.484Z,0
2017-12-09T02:23:36.018Z,0
2017-12-09T02:24:44.548Z,0
2017-12-09T02:25:53.084Z,0
2017-12-09T02:27:02.420Z,0
2017-12-09T02:28:11.220Z,0
2017-12-09T02:29:20.024Z,0
2017-12-09T02:30:28.831Z,0
2017-12-09T02:31:37.635Z,0
2017-12-09T02:32:46.434Z,0
2017-12-09T02:33:55.231Z,0
2017-12-09T02:35:03.762Z,0
2017-12-09T02:36:12.563Z,0
2017-12-09T02:37:21.361Z,0
2017-12-09T02:38:30.422Z,0
2017-12-09T02:39:38.953Z,0
2017-12-09T02:40:48.018Z,0
2017-12-09T02:41:56.552Z,0
2017-12-09T02:43:05.350Z,0
2017-12-09T02:44:13.881Z,0
2017-12-09T02:45:22.407Z,0
2017-12-09T02:46:31.204Z,0
2017-12-09T02:47:40.006Z,0
2017-12-09T02:48:48.805Z,0
2017-12-09T02:49:57.601Z,0
2017-12-09T02:51:06.672Z,0
2017-12-09T02:52:15.738Z,0
2017-12-09T02:53:24.589Z,0
2017-12-09T02:54:33.118Z,0
2017-12-09T02:55:42.448Z,0
2017-12-09T02:56:51.244Z,0
2017-12-09T02:58:00.044Z,0
2017-12-09T02:59:08.575Z,0
2017-12-09T03:00:17.647Z,0
2017-12-09T03:01:26.718Z,0
2017-12-09T03:02:35.250Z,0
2017-12-09T03:03:44.048Z,0
2017-12-09T03:04:52.849Z,0
2017-12-09T03:06:02.188Z,0
2017-12-09T03:07:11.247Z,0
2017-12-09T03:08:20.043Z,0
2017-12-09T03:09:28.840Z,0
2017-12-09T03:10:37.913Z,0
2017-12-09T03:11:46.977Z,0
2017-12-09T03:12:55.503Z,0
2017-12-09T03:14:04.306Z,0
2017-12-09T03:15:13.104Z,0
2017-12-09T03:16:21.902Z,0
2017-12-09T03:17:30.697Z,0
2017-12-09T03:18:39.500Z,0
2017-12-09T03:19:48.300Z,0
2017-12-09T03:20:57.098Z,0
2017-12-09T03:22:05.891Z,0
2017-12-09T03:23:14.419Z,0
2017-12-09T03:24:23.227Z,0
2017-12-09T03:25:32.026Z,0
2017-12-09T03:26:40.878Z,0
2017-12-09T03:27:49.623Z,0
2017-12-09T03:28:58.422Z,0
2017-12-09T03:30:07.156Z,0
2017-12-09T03:31:15.970Z,0
2017-12-09T03:32:24.500Z,0
2017-12-09T03:33:33.028Z,0
2017-12-09T03:34:41.555Z,0
2017-12-09T03:35:50.354Z,0
2017-12-09T03:36:58.884Z,0
2017-12-09T03:38:07.683Z,0
2017-12-09T03:39:16.214Z,0
2017-12-09T03:40:25.018Z,0
2017-12-09T03:41:33.548Z,0
2017-12-09T03:42:42.077Z,0
2017-12-09T03:43:50.609Z,0
2017-12-09T03:44:59.407Z,0
2017-12-09T03:46:07.942Z,0
2017-12-09T03:47:16.472Z,0
2017-12-09T03:48:25.263Z,0
2017-12-09T03:49:34.342Z,0
2017-12-09T03:50:43.135Z,0
2017-12-09T03:51:52.034Z,0
2017-12-09T03:53:00.567Z,0
2017-12-09T03:54:09.366Z,0
2017-12-09T03:55:17.897Z,0
2017-12-09T03:56:26.692Z,0
2017-12-09T03:57:35.493Z,0
2017-12-09T03:58:44.290Z,0
2017-12-09T03:59:53.088Z,0
2017-12-09T04:01:01.617Z,0
2017-12-09T04:02:10.414Z,0
2017-12-09T04:03:19.494Z,0
2017-12-09T04:04:28.291Z,0
2017-12-09T04:05:37.353Z,0
2017-12-09T04:06:46.417Z,0
2017-12-09T04:07:55.753Z,0
2017-12-09T04:09:04.559Z,0
2017-12-09T04:10:13.359Z,0
2017-12-09T04:11:22.697Z,0
2017-12-09T04:12:31.504Z,0
2017-12-09T04:13:40.303Z,0
2017-12-09T04:14:49.102Z,0
2017-12-09T04:15:57.630Z,0
2017-12-09T04:17:06.162Z,0
2017-12-09T04:18:15.260Z,0
2017-12-09T04:19:23.756Z,0
2017-12-09T04:20:32.552Z,0
2017-12-09T04:21:41.635Z,0
2017-12-09T04:22:50.432Z,0
2017-12-09T04:23:59.234Z,0
2017-12-09T04:25:08.037Z,0
2017-12-09T04:26:17.103Z,0
2017-12-09T04:27:25.902Z,0
2017-12-09T04:28:34.435Z,0
2017-12-09T04:29:43.237Z,0
2017-12-09T04:30:51.765Z,0
2017-12-09T04:32:00.295Z,0
2017-12-09T04:33:09.092Z,0
2017-12-09T04:34:17.622Z,0
2017-12-09T04:35:26.427Z,0
2017-12-09T04:36:35.225Z,0
2017-12-09T04:37:44.294Z,0
2017-12-09T04:38:52.825Z,0
2017-12-09T04:40:01.889Z,0
2017-12-09T04:41:10.950Z,0
2017-12-09T04:42:19.745Z,0
2017-12-09T04:43:28.808Z,0
2017-12-09T04:44:37.604Z,0
2017-12-09T04:45:46.404Z,0
2017-12-09T04:46:55.471Z,0
2017-12-09T04:48:04.535Z,0
2017-12-09T04:49:13.867Z,0
2017-12-09T04:50:22.397Z,0
2017-12-09T04:51:30.927Z,0
2017-12-09T04:52:39.457Z,0
2017-12-09T04:53:47.987Z,0
2017-12-09T04:54:57.328Z,0
2017-12-09T04:56:05.860Z,0
2017-12-09T04:57:14.389Z,0
2017-12-09T04:58:23.190Z,0
2017-12-09T04:59:32.251Z,0
2017-12-09T05:00:40.782Z,0
2017-12-09T05:01:49.312Z,0
2017-12-09T05:02:57.842Z,0
2017-12-09T05:04:06.906Z,0
2017-12-09T05:05:15.702Z,0
2017-12-09T05:06:24.231Z,0
2017-12-09T05:07:33.563Z,0
2017-12-09T05:08:42.682Z,0
2017-12-09T05:09:51.475Z,0
2017-12-09T05:11:00.271Z,0
2017-12-09T05:12:08.806Z,0
2017-12-09T05:13:17.605Z,0
2017-12-09T05:14:26.138Z,0
2017-12-09T05:15:35.206Z,0
2017-12-09T05:16:43.737Z,0
2017-12-09T05:17:52.537Z,0
2017-12-09T05:19:01.339Z,0
2017-12-09T05:20:09.872Z,0
2017-12-09T05:21:18.668Z,0
2017-12-09T05:22:27.199Z,0
2017-12-09T05:23:35.728Z,0
2017-12-09T05:24:44.535Z,0
2017-12-09T05:25:53.069Z,0
2017-12-09T05:27:01.601Z,0
2017-12-09T05:28:10.665Z,0
2017-12-09T05:29:19.462Z,0
2017-12-09T05:30:28.261Z,0
2017-12-09T05:31:37.060Z,0
2017-12-09T05:32:45.865Z,0
2017-12-09T05:33:54.660Z,0
2017-12-09T05:35:03.727Z,0
2017-12-09T05:36:12.522Z,0
2017-12-09T05:37:21.324Z,0
2017-12-09T05:38:29.846Z,0
2017-12-09T05:39:38.649Z,0
2017-12-09T05:40:47.187Z,0
2017-12-09T05:41:56.238Z,0
2017-12-09T05:43:05.038Z,0
2017-12-09T05:44:13.569Z,0
2017-12-09T05:45:22.104Z,0
2017-12-09T05:46:30.905Z,0
2017-12-09T05:47:39.966Z,0
2017-12-09T05:48:49.102Z,0
2017-12-09T05:49:57.634Z,0
2017-12-09T05:51:06.707Z,0
2017-12-09T05:52:15.782Z,0
2017-12-09T05:53:24.308Z,0
2017-12-09T05:54:33.375Z,0
2017-12-09T05:55:41.907Z,0
2017-12-09T05:56:50.702Z,0
2017-12-09T05:57:59.503Z,0
2017-12-09T05:59:08.300Z,0
2017-12-09T06:00:16.833Z,0
2017-12-09T06:01:25.641Z,0
2017-12-09T06:02:34.453Z,0
2017-12-09T06:03:43.779Z,0
2017-12-09T06:04:52.574Z,0
2017-12-09T06:06:01.107Z,0
2017-12-09T06:07:09.905Z,0
2017-12-09T06:08:18.703Z,0
2017-12-09T06:09:27.499Z,0
2017-12-09T06:10:36.571Z,0
2017-12-09T06:11:45.632Z,0
2017-12-09T06:12:54.698Z,0
2017-12-09T06:14:03.496Z,0
2017-12-09T06:15:12.557Z,0
2017-12-09T06:16:21.357Z,0
2017-12-09T06:17:30.430Z,0
2017-12-09T06:18:39.499Z,0
2017-12-09T06:19:48.297Z,0
2017-12-09T06:20:57.090Z,0
2017-12-09T06:22:05.884Z,0
2017-12-09T06:23:14.683Z,0
2017-12-09T06:24:23.217Z,0
2017-12-09T06:25:32.277Z,0
2017-12-09T06:26:40.807Z,0
2017-12-09T06:27:49.340Z,0
2017-12-09T06:28:58.139Z,0
2017-12-09T06:30:06.871Z,0
2017-12-09T06:31:15.696Z,0
2017-12-09T06:32:24.228Z,0
2017-12-09T06:33:32.760Z,0
2017-12-09T06:34:41.556Z,0
2017-12-09T06:35:50.354Z,0
2017-12-09T06:36:58.902Z,0
2017-12-09T06:38:07.968Z,0
2017-12-09T06:39:17.041Z,0
2017-12-09T06:40:25.836Z,0
2017-12-09T06:41:34.936Z,0
2017-12-09T06:42:44.367Z,0
2017-12-09T06:43:52.899Z,0
2017-12-09T06:45:01.967Z,0
2017-12-09T06:46:10.764Z,0
2017-12-09T06:47:19.828Z,0
2017-12-09T06:48:28.624Z,0
2017-12-09T06:49:37.431Z,0
2017-12-09T06:50:46.490Z,0
2017-12-09T06:51:55.022Z,0
2017-12-09T06:53:03.832Z,0
2017-12-09T06:54:12.894Z,0
2017-12-09T06:55:21.691Z,0
2017-12-09T06:56:30.489Z,0
2017-12-09T06:57:39.283Z,0
2017-12-09T06:58:48.080Z,0
2017-12-09T06:59:56.610Z,0
2017-12-09T07:01:05.673Z,0
2017-12-09T07:02:14.469Z,0
2017-12-09T07:03:23.002Z,0
2017-12-09T07:04:31.533Z,0
2017-12-09T07:05:40.600Z,0
2017-12-09T07:06:49.666Z,0
2017-12-09T07:07:58.467Z,0
2017-12-09T07:09:07.273Z,0
2017-12-09T07:10:16.070Z,0
2017-12-09T07:11:25.133Z,0
2017-12-09T07:12:33.934Z,0
2017-12-09T07:13:42.731Z,0
2017-12-09T07:14:51.263Z,0
2017-12-09T07:16:00.059Z,0
2017-12-09T07:17:08.867Z,0
2017-12-09T07:18:17.928Z,0
2017-12-09T07:19:26.727Z,0
2017-12-09T07:20:35.270Z,0
2017-12-09T07:21:43.801Z,0
2017-12-09T07:22:52.599Z,0
2017-12-09T07:24:01.449Z,0
2017-12-09T07:25:10.248Z,0
2017-12-09T07:26:19.047Z,0
2017-12-09T07:27:27.842Z,0
2017-12-09T07:28:36.373Z,5
2017-12-09T07:29:45.170Z,5
2017-12-09T07:30:53.973Z,5
2017-12-09T07:32:02.505Z,5
2017-12-09T07:33:11.299Z,5
2017-12-09T07:34:19.826Z,5
2017-12-09T07:35:28.895Z,5
2017-12-09T07:36:37.690Z,5
2017-12-09T07:37:46.220Z,5
2017-12-09T07:38:55.020Z,5
2017-12-09T07:40:04.089Z,5
2017-12-09T07:41:12.621Z,5
2017-12-09T07:42:21.151Z,5
2017-12-09T07:43:29.952Z,5
2017-12-09T07:44:38.746Z,5
2017-12-09T07:45:47.540Z,5
2017-12-09T07:46:56.612Z,5
2017-12-09T07:48:05.405Z,5
2017-12-09T07:49:13.934Z,5
2017-12-09T07:50:22.733Z,5
2017-12-09T07:51:31.265Z,5
2017-12-09T07:52:40.066Z,5
2017-12-09T07:53:48.896Z,5
2017-12-09T07:54:57.698Z,5
2017-12-09T07:56:06.766Z,5
2017-12-09T07:57:15.296Z,5
2017-12-09T07:58:24.100Z,10
2017-12-09T07:59:32.631Z,10
2017-12-09T08:00:41.694Z,10
2017-12-09T08:01:50.490Z,10
2017-12-09T08:02:59.291Z,15
2017-12-09T08:04:08.089Z,15
2017-12-09T08:05:16.619Z,15
2017-12-09T08:06:25.416Z,15
2017-12-09T08:07:33.947Z,15
2017-12-09T08:08:43.011Z,15
2017-12-09T08:09:51.544Z,10
2017-12-09T08:11:00.075Z,10
2017-12-09T08:12:08.872Z,5
2017-12-09T08:13:17.676Z,5
2017-12-09T08:14:26.478Z,5
2017-12-09T08:15:35.808Z,5
2017-12-09T08:16:44.605Z,5
2017-12-09T08:17:53.137Z,5
2017-12-09T08:19:02.206Z,5
2017-12-09T08:20:10.739Z,5
2017-12-09T08:21:19.531Z,5
2017-12-09T08:22:28.594Z,5
2017-12-09T08:23:37.393Z,10
2017-12-09T08:24:45.924Z,10
2017-12-09T08:25:54.987Z,10
2017-12-09T08:27:03.795Z,10
2017-12-09T08:28:12.323Z,10
2017-12-09T08:29:21.103Z,10
2017-12-09T08:30:29.900Z,10
2017-12-09T08:31:38.704Z,10
2017-12-09T08:32:47.775Z,10
2017-12-09T08:33:56.306Z,10
2017-12-09T08:35:05.643Z,10
2017-12-09T08:36:14.706Z,10
2017-12-09T08:37:23.238Z,10
2017-12-09T08:38:32.308Z,15
2017-12-09T08:39:41.108Z,15
2017-12-09T08:40:49.959Z,15
2017-12-09T08:41:58.436Z,15
2017-12-09T08:43:07.235Z,15
2017-12-09T08:44:15.764Z,15
2017-12-09T08:45:24.823Z,20
2017-12-09T08:46:33.892Z,20
2017-12-09T08:47:42.423Z,20
2017-12-09T08:48:50.951Z,20
2017-12-09T08:50:00.018Z,20
2017-12-09T08:51:09.100Z,20
2017-12-09T08:52:17.622Z,20
2017-12-09T08:53:26.420Z,15
2017-12-09T08:54:34.955Z,15
2017-12-09T08:55:43.485Z,15
2017-12-09T08:56:52.018Z,15
2017-12-09T08:58:00.550Z,15
2017-12-09T08:59:09.351Z,15
2017-12-09T09:00:18.686Z,10
2017-12-09T09:01:27.218Z,10
2017-12-09T09:02:36.284Z,10
2017-12-09T09:03:45.349Z,10
2017-12-09T09:04:54.143Z,15
2017-12-09T09:06:03.488Z,15
2017-12-09T09:07:12.555Z,15
2017-12-09T09:08:21.086Z,20
2017-12-09T09:09:30.477Z,20
2017-12-09T09:10:39.269Z,20
2017-12-09T09:11:48.069Z,15
2017-12-09T09:12:56.602Z,15
2017-12-09T09:14:05.404Z,15
2017-12-09T09:15:14.212Z,15
2017-12-09T09:16:23.005Z,15
2017-12-09T09:17:32.072Z,15
2017-12-09T09:18:40.602Z,20
2017-12-09T09:19:49.398Z,30
2017-12-09T09:20:58.475Z,30
2017-12-09T09:22:07.271Z,30
2017-12-09T09:23:15.805Z,35
2017-12-09T09:24:24.334Z,40
2017-12-09T09:25:33.664Z,40
2017-12-09T09:26:42.462Z,40
2017-12-09T09:27:51.531Z,35
2017-12-09T09:29:00.067Z,30
2017-12-09T09:30:09.752Z,25
2017-12-09T09:31:18.552Z,20
2017-12-09T09:32:27.350Z,20
2017-12-09T09:33:35.884Z,20
2017-12-09T09:34:44.684Z,20
2017-12-09T09:35:53.747Z,25
2017-12-09T09:37:02.557Z,30
2017-12-09T09:38:11.624Z,30
2017-12-09T09:39:20.434Z,30
2017-12-09T09:40:29.243Z,35
2017-12-09T09:41:38.086Z,40
2017-12-09T09:42:46.946Z,45
2017-12-09T09:43:56.009Z,40
2017-12-09T09:45:05.083Z,30
2017-12-09T09:46:13.894Z,30
2017-12-09T09:47:22.708Z,30
2017-12-09T09:48:31.772Z,30
2017-12-09T09:49:40.308Z,30
2017-12-09T09:50:49.375Z,30
2017-12-09T09:51:58.709Z,30
2017-12-09T09:53:07.570Z,25
2017-12-09T09:54:16.369Z,25
2017-12-09T09:55:25.167Z,30
2017-12-09T09:56:33.959Z,30
2017-12-09T09:57:42.491Z,25
2017-12-09T09:58:51.560Z,25
2017-12-09T10:00:00.091Z,25
2017-12-09T10:01:09.340Z,30
2017-12-09T10:02:17.875Z,35
2017-12-09T10:03:26.937Z,50
2017-12-09T10:04:35.467Z,55
2017-12-09T10:05:44.531Z,80
2017-12-09T10:06:53.062Z,100
2017-12-09T10:08:01.599Z,100
2017-12-09T10:09:10.400Z,100
2017-12-09T10:10:19.194Z,100
2017-12-09T10:11:27.997Z,85
2017-12-09T10:12:36.527Z,85
2017-12-09T10:13:45.332Z,70
2017-12-09T10:14:53.861Z,65
2017-12-09T10:16:02.658Z,65
2017-12-09T10:17:11.456Z,60
2017-12-09T10:18:19.987Z,60
2017-12-09T10:19:28.516Z,65
2017-12-09T10:20:37.667Z,75
2017-12-09T10:21:46.299Z,75
2017-12-09T10:22:55.099Z,80
2017-12-09T10:24:03.630Z,100
2017-12-09T10:25:12.427Z,105
2017-12-09T10:26:20.959Z,105
2017-12-09T10:27:30.028Z,100
2017-12-09T10:28:38.566Z,95
2017-12-09T10:29:47.094Z,90
2017-12-09T10:30:55.901Z,100
2017-12-09T10:32:04.698Z,110
2017-12-09T10:33:13.514Z,115
2017-12-09T10:34:22.042Z,145
2017-12-09T10:35:30.574Z,150
2017-12-09T10:36:39.376Z,135
2017-12-09T10:37:47.903Z,165
2017-12-09T10:38:56.971Z,170
2017-12-09T10:40:05.512Z,195
2017-12-09T10:41:14.046Z,205
2017-12-09T10:42:23.109Z,205
2017-12-09T10:43:32.006Z,195
2017-12-09T10:44:40.543Z,185
2017-12-09T10:45:49.082Z,180
2017-12-09T10:46:57.889Z,165
2017-12-09T10:48:06.422Z,155
2017-12-09T10:49:15.488Z,150
2017-12-09T10:50:24.558Z,165
2017-12-09T10:51:33.092Z,150
2017-12-09T10:52:41.626Z,150
2017-12-09T10:53:50.156Z,155
2017-12-09T10:54:58.960Z,150
2017-12-09T10:56:08.029Z,160
2017-12-09T10:57:17.371Z,160
2017-12-09T10:58:25.903Z,155
2017-12-09T10:59:34.433Z,165
2017-12-09T11:00:43.231Z,160
2017-12-09T11:01:51.764Z,165
2017-12-09T11:03:00.576Z,155
2017-12-09T11:04:09.114Z,155
2017-12-09T11:05:17.645Z,160
2017-12-09T11:06:26.975Z,175
2017-12-09T11:07:35.784Z,175
2017-12-09T11:08:44.590Z,170
2017-12-09T11:09:53.393Z,180
2017-12-09T11:11:02.471Z,160
2017-12-09T11:12:11.008Z,170
2017-12-09T11:13:19.806Z,170
2017-12-09T11:14:28.604Z,170
2017-12-09T11:15:37.495Z,170
2017-12-09T11:16:46.299Z,165
2017-12-09T11:17:55.098Z,165
2017-12-09T11:19:03.901Z,165
2017-12-09T11:20:12.970Z,160
2017-12-09T11:21:21.775Z,160
2017-12-09T11:22:30.575Z,165
2017-12-09T11:23:39.376Z,170
2017-12-09T11:24:48.175Z,170
2017-12-09T11:25:56.977Z,160
2017-12-09T11:27:05.785Z,140
2017-12-09T11:28:14.581Z,125
2017-12-09T11:29:23.645Z,120
2017-12-09T11:30:32.177Z,125
2017-12-09T11:31:40.979Z,125
2017-12-09T11:32:49.774Z,140
2017-12-09T11:33:58.576Z,140
2017-12-09T11:35:07.108Z,135
2017-12-09T11:36:15.637Z,150
2017-12-09T11:37:24.440Z,150
2017-12-09T11:38:33.520Z,150
2017-12-09T11:39:42.059Z,150
2017-12-09T11:40:50.872Z,135
2017-12-09T11:41:59.713Z,120
2017-12-09T11:43:08.256Z,145
2017-12-09T11:44:17.071Z,145
2017-12-09T11:45:25.611Z,145
2017-12-09T11:46:34.410Z,130
2017-12-09T11:47:43.214Z,135
2017-12-09T11:48:51.748Z,135
2017-12-09T11:50:00.817Z,135
2017-12-09T11:51:09.882Z,140
2017-12-09T11:52:18.416Z,140
2017-12-09T11:53:27.770Z,150
2017-12-09T11:54:36.301Z,150
2017-12-09T11:55:45.095Z,150
2017-12-09T11:56:53.633Z,145
2017-12-09T11:58:02.178Z,135
2017-12-09T11:59:10.978Z,140
2017-12-09T12:00:19.774Z,140
2017-12-09T12:01:28.303Z,140
2017-12-09T12:02:36.833Z,145
2017-12-09T12:03:46.161Z,140
2017-12-09T12:04:55.492Z,125
2017-12-09T12:06:04.402Z,135
2017-12-09T12:07:13.202Z,145
2017-12-09T12:08:22.278Z,145
2017-12-09T12:09:30.810Z,145
2017-12-09T12:10:39.611Z,145
2017-12-09T12:11:48.417Z,150
2017-12-09T12:12:57.458Z,180
2017-12-09T12:14:05.992Z,185
2017-12-09T12:15:14.535Z,185
2017-12-09T12:16:23.337Z,160
2017-12-09T12:17:32.397Z,150
2017-12-09T12:18:40.931Z,145
2017-12-09T12:19:49.461Z,155
2017-12-09T12:20:58.310Z,145
2017-12-09T12:22:07.109Z,125
2017-12-09T12:23:15.652Z,135
2017-12-09T12:24:24.192Z,125
2017-12-09T12:25:33.477Z,100
2017-12-09T12:26:42.012Z,90
2017-12-09T12:27:50.553Z,90
2017-12-09T12:28:59.084Z,115
2017-12-09T12:30:08.416Z,160
2017-12-09T12:31:16.949Z,205
2017-12-09T12:32:25.480Z,230
2017-12-09T12:33:34.278Z,225
2017-12-09T12:34:43.081Z,200
2017-12-09T12:35:52.149Z,205
2017-12-09T12:37:00.681Z,175
2017-12-09T12:38:09.748Z,165
2017-12-09T12:39:19.376Z,150
2017-12-09T12:40:28.451Z,130
2017-12-09T12:41:37.253Z,110
2017-12-09T12:42:45.786Z,105
2017-12-09T12:43:54.320Z,140
2017-12-09T12:45:03.128Z,160
2017-12-09T12:46:11.923Z,190
2017-12-09T12:47:20.724Z,265
2017-12-09T12:48:29.740Z,255
2017-12-09T12:49:38.285Z,200
2017-12-09T12:50:46.820Z,170
2017-12-09T12:51:55.354Z,135
2017-12-09T12:53:03.889Z,90
2017-12-09T12:54:12.956Z,70
2017-12-09T12:55:22.025Z,65
2017-12-09T12:56:31.096Z,65
2017-12-09T12:57:39.631Z,65
2017-12-09T12:58:48.702Z,65
2017-12-09T12:59:57.512Z,60
2017-12-09T13:01:06.052Z,75
2017-12-09T13:02:15.139Z,65
2017-12-09T13:03:23.944Z,55
2017-12-09T13:04:32.483Z,55
2017-12-09T13:05:41.022Z,50
2017-12-09T13:06:49.830Z,50
2017-12-09T13:07:58.367Z,55
2017-12-09T13:09:06.911Z,60
2017-12-09T13:10:15.717Z,60
2017-12-09T13:11:24.530Z,65
2017-12-09T13:12:33.076Z,90
2017-12-09T13:13:41.608Z,100
2017-12-09T13:14:50.409Z,100
2017-12-09T13:15:59.477Z,70
2017-12-09T13:17:08.003Z,60
2017-12-09T13:18:17.068Z,60
2017-12-09T13:19:25.868Z,55
2017-12-09T13:20:34.667Z,70
2017-12-09T13:21:43.741Z,70
2017-12-09T13:22:52.267Z,60
2017-12-09T13:24:01.611Z,60
2017-12-09T13:25:10.132Z,65
2017-12-09T13:26:18.929Z,90
2017-12-09T13:27:27.518Z,115
2017-12-09T13:28:36.004Z,120
2017-12-09T13:29:44.803Z,125
2017-12-09T13:30:53.333Z,145
2017-12-09T13:32:01.865Z,135
2017-12-09T13:33:10.398Z,110
2017-12-09T13:34:19.199Z,95
2017-12-09T13:35:28.272Z,95
2017-12-09T13:36:36.805Z,95
2017-12-09T13:37:45.338Z,90
2017-12-09T13:38:54.402Z,75
2017-12-09T13:40:03.199Z,70
2017-12-09T13:41:12.267Z,70
2017-12-09T13:42:20.796Z,75
2017-12-09T13:43:29.596Z,80
2017-12-09T13:44:38.395Z,75
2017-12-09T13:45:47.251Z,85
2017-12-09T13:46:55.785Z,85
2017-12-09T13:48:04.586Z,80
2017-12-09T13:49:13.398Z,70
2017-12-09T13:50:22.251Z,60
2017-12-09T13:51:31.046Z,55
2017-12-09T13:52:39.840Z,50
2017-12-09T13:53:49.004Z,55
2017-12-09T13:54:57.584Z,55
2017-12-09T13:56:06.720Z,50
2017-12-09T13:57:15.846Z,35
2017-12-09T13:58:24.681Z,25
2017-12-09T13:59:33.286Z,30
2017-12-09T14:00:42.237Z,50
2017-12-09T14:01:50.941Z,65
2017-12-09T14:02:59.792Z,75
2017-12-09T14:04:08.695Z,80
2017-12-09T14:05:17.225Z,70
2017-12-09T14:06:26.023Z,60
2017-12-09T14:07:34.555Z,55
2017-12-09T14:08:43.083Z,55
2017-12-09T14:09:51.889Z,50
2017-12-09T14:11:00.420Z,45
2017-12-09T14:12:09.769Z,40
2017-12-09T14:13:18.572Z,40
2017-12-09T14:14:27.104Z,35
2017-12-09T14:15:35.635Z,35
2017-12-09T14:16:44.703Z,35
2017-12-09T14:17:53.245Z,25
2017-12-09T14:19:02.313Z,30
2017-12-09T14:20:10.847Z,30
2017-12-09T14:21:19.646Z,30
2017-12-09T14:22:28.173Z,25
2017-12-09T14:23:36.969Z,25
2017-12-09T14:24:45.774Z,25
2017-12-09T14:25:54.575Z,20
2017-12-09T14:27:03.642Z,15
2017-12-09T14:28:12.443Z,15
2017-12-09T14:29:21.242Z,20
2017-12-09T14:30:30.045Z,25
2017-12-09T14:31:38.575Z,25
2017-12-09T14:32:47.383Z,25
2017-12-09T14:33:56.185Z,25
2017-12-09T14:35:04.985Z,25
2017-12-09T14:36:13.694Z,20
2017-12-09T14:37:22.226Z,20
2017-12-09T14:38:31.030Z,20
2017-12-09T14:39:40.098Z,20
2017-12-09T14:40:48.636Z,15
2017-12-09T14:41:57.440Z,15
2017-12-09T14:43:05.978Z,15
2017-12-09T14:44:15.047Z,15
2017-12-09T14:45:23.847Z,10
2017-12-09T14:46:33.179Z,10
2017-12-09T14:47:42.011Z,10
2017-12-09T14:48:52.749Z,10
2017-12-09T14:50:03.682Z,15
2017-12-09T14:51:12.832Z,15
2017-12-09T14:52:21.992Z,15
2017-12-09T14:53:30.900Z,15
2017-12-09T14:54:40.051Z,15
2017-12-09T14:55:49.414Z,15
2017-12-09T14:56:59.475Z,15
2017-12-09T14:58:08.563Z,10
2017-12-09T14:59:17.373Z,10
2017-12-09T15:00:26.170Z,10
2017-12-09T15:01:35.502Z,10
2017-12-09T15:02:45.102Z,10
2017-12-09T15:03:53.904Z,10
2017-12-09T15:05:02.706Z,10
2017-12-09T15:06:11.612Z,10
2017-12-09T15:07:20.792Z,10
2017-12-09T15:08:29.857Z,10
2017-12-09T15:09:38.654Z,5
2017-12-09T15:10:47.188Z,5
2017-12-09T15:11:55.723Z,5
2017-12-09T15:13:04.989Z,5
2017-12-09T15:14:13.521Z,10
2017-12-09T15:15:22.321Z,10
2017-12-09T15:16:30.855Z,5
2017-12-09T15:17:39.663Z,5
2017-12-09T15:18:48.742Z,5
2017-12-09T15:19:57.548Z,5
2017-12-09T15:21:06.358Z,5
2017-12-09T15:22:15.165Z,5
2017-12-09T15:23:23.708Z,5
2017-12-09T15:24:32.542Z,5
2017-12-09T15:25:41.102Z,0
2017-12-09T15:26:49.644Z,0
2017-12-09T15:27:58.448Z,0
2017-12-09T15:29:07.527Z,0
2017-12-09T15:30:16.332Z,0
2017-12-09T15:31:24.871Z,0
2017-12-09T15:32:33.418Z,0
2017-12-09T15:33:42.240Z,0
2017-12-09T15:34:51.043Z,0
2017-12-09T15:35:59.573Z,0
2017-12-09T15:37:08.144Z,0
2017-12-09T15:38:17.228Z,0
2017-12-09T15:39:25.756Z,0
2017-12-09T15:40:34.836Z,0
2017-12-09T15:41:43.915Z,0
2017-12-09T15:42:53.033Z,0
2017-12-09T15:44:02.373Z,0
2017-12-09T15:45:10.908Z,0
2017-12-09T15:46:19.986Z,0
2017-12-09T15:47:29.345Z,0
2017-12-09T15:48:38.146Z,0
2017-12-09T15:49:46.681Z,0
2017-12-09T15:50:55.215Z,0
2017-12-09T15:52:04.035Z,0
2017-12-09T15:53:12.836Z,0
2017-12-09T15:54:21.370Z,0
2017-12-09T15:55:30.436Z,0
2017-12-09T15:56:38.980Z,0
2017-12-09T15:57:47.511Z,0
2017-12-09T15:58:56.311Z,0
2017-12-09T16:00:05.113Z,0
2017-12-09T16:01:14.274Z,0
2017-12-09T16:02:22.805Z,0
2017-12-09T16:03:31.618Z,0
2017-12-09T16:04:40.947Z,0
2017-12-09T16:05:49.748Z,0
2017-12-09T16:06:58.282Z,0
2017-12-09T16:08:07.080Z,0
2017-12-09T16:09:16.421Z,0
2017-12-09T16:10:25.217Z,0
2017-12-09T16:11:34.025Z,0
2017-12-09T16:12:42.825Z,0
2017-12-09T16:13:51.625Z,0
2017-12-09T16:15:00.696Z,0
2017-12-09T16:16:09.492Z,0
2017-12-09T16:17:18.027Z,0
2017-12-09T16:18:27.096Z,0
2017-12-09T16:19:36.166Z,0
2017-12-09T16:20:45.229Z,0
2017-12-09T16:21:54.297Z,0
2017-12-09T16:23:03.092Z,0
2017-12-09T16:24:11.623Z,0
2017-12-09T16:25:20.696Z,0
2017-12-09T16:26:29.231Z,0
2017-12-09T16:27:38.295Z,0
2017-12-09T16:28:46.828Z,0
2017-12-09T16:29:55.369Z,0
2017-12-09T16:31:04.168Z,0
2017-12-09T16:32:12.700Z,0
2017-12-09T16:33:21.242Z,0
2017-12-09T16:34:30.076Z,0
2017-12-09T16:35:38.641Z,0